sensor_id;sensor_type;location;lat;lon;timestamp;P1;durP1;ratioP1;P2;durP2;ratioP2
7607;SDS011;3845;48.120;11.534;2023-09-08T00:00:00;6.57;;;4.60;;
7607;SDS011;3845;48.120;11.534;2023-09-08T00:02:26;5.47;;;4.97;;
7607;SDS011;3845;48.120;11.534;2023-09-08T00:04:52;4.93;;;4.43;;
7607;SDS011;3845;48.120;11.534;2023-09-08T00:07:18;5.60;;;4.73;;
7607;SDS011;3845;48.120;11.534;2023-09-08T00:09:43;5.57;;;4.70;;
7607;SDS011;3845;48.120;11.534;2023-09-08T00:12:08;5.90;;;4.60;;
7607;SDS011;3845;48.120;11.534;2023-09-08T00:14:34;5.20;;;4.70;;
7607;SDS011;3845;48.120;11.534;2023-09-08T00:16:59;5.30;;;4.80;;
7607;SDS011;3845;48.120;11.534;2023-09-08T00:19:24;5.20;;;4.70;;
7607;SDS011;3845;48.120;11.534;2023-09-08T00:21:50;5.37;;;4.50;;
7607;SDS011;3845;48.120;11.534;2023-09-08T00:24:15;5.00;;;4.50;;
7607;SDS011;3845;48.120;11.534;2023-09-08T00:26:40;5.97;;;4.70;;
7607;SDS011;3845;48.120;11.534;2023-09-08T00:29:06;5.70;;;4.60;;
7607;SDS011;3845;48.120;11.534;2023-09-08T00:31:31;5.07;;;4.40;;
7607;SDS011;3845;48.120;11.534;2023-09-08T00:33:56;4.47;;;4.07;;
7607;SDS011;3845;48.120;11.534;2023-09-08T00:36:22;5.00;;;4.50;;
7607;SDS011;3845;48.120;11.534;2023-09-08T00:38:47;5.60;;;4.70;;
7607;SDS011;3845;48.120;11.534;2023-09-08T00:41:12;4.47;;;4.07;;
7607;SDS011;3845;48.120;11.534;2023-09-08T00:43:37;6.07;;;4.67;;
7607;SDS011;3845;48.120;11.534;2023-09-08T00:46:03;6.10;;;4.70;;
7607;SDS011;3845;48.120;11.534;2023-09-08T00:48:29;5.07;;;4.63;;
7607;SDS011;3845;48.120;11.534;2023-09-08T00:50:54;5.23;;;4.30;;
7607;SDS011;3845;48.120;11.534;2023-09-08T00:53:20;6.07;;;4.80;;
7607;SDS011;3845;48.120;11.534;2023-09-08T00:55:45;5.83;;;4.37;;
7607;SDS011;3845;48.120;11.534;2023-09-08T00:58:11;5.73;;;4.67;;
7607;SDS011;3845;48.120;11.534;2023-09-08T01:00:37;5.63;;;4.57;;
7607;SDS011;3845;48.120;11.534;2023-09-08T01:03:02;6.63;;;4.93;;
7607;SDS011;3845;48.120;11.534;2023-09-08T01:05:28;5.27;;;4.67;;
7607;SDS011;3845;48.120;11.534;2023-09-08T01:07:53;4.90;;;4.40;;
7607;SDS011;3845;48.120;11.534;2023-09-08T01:10:20;4.70;;;4.20;;
7607;SDS011;3845;48.120;11.534;2023-09-08T01:12:45;6.17;;;4.50;;
7607;SDS011;3845;48.120;11.534;2023-09-08T01:15:11;5.27;;;4.57;;
7607;SDS011;3845;48.120;11.534;2023-09-08T01:17:37;4.87;;;4.20;;
7607;SDS011;3845;48.120;11.534;2023-09-08T01:20:22;4.77;;;4.30;;
7607;SDS011;3845;48.120;11.534;2023-09-08T01:25:28;5.57;;;4.40;;
7607;SDS011;3845;48.120;11.534;2023-09-08T01:27:55;5.47;;;4.50;;
7607;SDS011;3845;48.120;11.534;2023-09-08T01:30:21;5.40;;;4.77;;
7607;SDS011;3845;48.120;11.534;2023-09-08T01:32:48;5.50;;;4.40;;
7607;SDS011;3845;48.120;11.534;2023-09-08T01:35:14;4.50;;;4.10;;
7607;SDS011;3845;48.120;11.534;2023-09-08T01:37:40;4.47;;;3.87;;
7607;SDS011;3845;48.120;11.534;2023-09-08T01:40:07;4.50;;;4.10;;
7607;SDS011;3845;48.120;11.534;2023-09-08T01:42:32;5.97;;;4.77;;
7607;SDS011;3845;48.120;11.534;2023-09-08T01:44:58;4.90;;;4.40;;
7607;SDS011;3845;48.120;11.534;2023-09-08T01:47:23;6.97;;;5.00;;
7607;SDS011;3845;48.120;11.534;2023-09-08T01:49:48;5.30;;;4.63;;
7607;SDS011;3845;48.120;11.534;2023-09-08T01:52:13;5.23;;;4.73;;
7607;SDS011;3845;48.120;11.534;2023-09-08T01:54:39;4.87;;;4.27;;
7607;SDS011;3845;48.120;11.534;2023-09-08T01:57:04;5.73;;;4.43;;
7607;SDS011;3845;48.120;11.534;2023-09-08T01:59:29;5.23;;;4.43;;
7607;SDS011;3845;48.120;11.534;2023-09-08T02:01:54;4.83;;;4.43;;
7607;SDS011;3845;48.120;11.534;2023-09-08T02:04:20;5.10;;;4.60;;
7607;SDS011;3845;48.120;11.534;2023-09-08T02:06:45;4.63;;;4.23;;
7607;SDS011;3845;48.120;11.534;2023-09-08T02:09:13;4.80;;;4.30;;
7607;SDS011;3845;48.120;11.534;2023-09-08T02:11:39;4.53;;;4.13;;
7607;SDS011;3845;48.120;11.534;2023-09-08T02:14:04;4.37;;;3.97;;
7607;SDS011;3845;48.120;11.534;2023-09-08T02:16:29;4.30;;;3.90;;
7607;SDS011;3845;48.120;11.534;2023-09-08T02:18:54;4.60;;;4.20;;
7607;SDS011;3845;48.120;11.534;2023-09-08T02:21:21;5.93;;;4.30;;
7607;SDS011;3845;48.120;11.534;2023-09-08T02:23:46;4.17;;;3.77;;
7607;SDS011;3845;48.120;11.534;2023-09-08T02:26:11;4.43;;;4.03;;
7607;SDS011;3845;48.120;11.534;2023-09-08T02:28:37;4.87;;;4.37;;
7607;SDS011;3845;48.120;11.534;2023-09-08T02:31:02;4.87;;;4.37;;
7607;SDS011;3845;48.120;11.534;2023-09-08T02:33:27;4.20;;;3.80;;
7607;SDS011;3845;48.120;11.534;2023-09-08T02:35:53;5.33;;;4.60;;
7607;SDS011;3845;48.120;11.534;2023-09-08T02:38:18;5.33;;;4.07;;
7607;SDS011;3845;48.120;11.534;2023-09-08T02:40:44;4.73;;;4.33;;
7607;SDS011;3845;48.120;11.534;2023-09-08T02:43:09;5.03;;;4.40;;
7607;SDS011;3845;48.120;11.534;2023-09-08T02:45:35;6.20;;;4.80;;
7607;SDS011;3845;48.120;11.534;2023-09-08T02:48:00;4.57;;;4.17;;
7607;SDS011;3845;48.120;11.534;2023-09-08T02:50:26;4.57;;;4.17;;
7607;SDS011;3845;48.120;11.534;2023-09-08T02:52:51;4.67;;;4.20;;
7607;SDS011;3845;48.120;11.534;2023-09-08T02:55:16;4.90;;;4.20;;
7607;SDS011;3845;48.120;11.534;2023-09-08T02:57:42;5.13;;;4.60;;
7607;SDS011;3845;48.120;11.534;2023-09-08T03:00:07;4.57;;;4.13;;
7607;SDS011;3845;48.120;11.534;2023-09-08T03:02:33;5.53;;;4.33;;
7607;SDS011;3845;48.120;11.534;2023-09-08T03:04:58;4.50;;;4.10;;
7607;SDS011;3845;48.120;11.534;2023-09-08T03:07:23;5.57;;;4.30;;
7607;SDS011;3845;48.120;11.534;2023-09-08T03:09:49;4.60;;;4.17;;
7607;SDS011;3845;48.120;11.534;2023-09-08T03:12:14;5.00;;;4.40;;
7607;SDS011;3845;48.120;11.534;2023-09-08T03:14:39;4.97;;;4.27;;
7607;SDS011;3845;48.120;11.534;2023-09-08T03:17:05;4.70;;;4.20;;
7607;SDS011;3845;48.120;11.534;2023-09-08T03:19:30;5.17;;;4.17;;
7607;SDS011;3845;48.120;11.534;2023-09-08T03:21:55;5.13;;;4.00;;
7607;SDS011;3845;48.120;11.534;2023-09-08T03:24:21;3.83;;;3.43;;
7607;SDS011;3845;48.120;11.534;2023-09-08T03:26:46;4.33;;;3.83;;
7607;SDS011;3845;48.120;11.534;2023-09-08T03:29:11;4.30;;;3.90;;
7607;SDS011;3845;48.120;11.534;2023-09-08T03:31:37;5.27;;;3.80;;
7607;SDS011;3845;48.120;11.534;2023-09-08T03:34:02;4.90;;;4.10;;
7607;SDS011;3845;48.120;11.534;2023-09-08T03:36:27;3.93;;;3.53;;
7607;SDS011;3845;48.120;11.534;2023-09-08T03:38:52;4.30;;;3.90;;
7607;SDS011;3845;48.120;11.534;2023-09-08T03:41:18;5.27;;;4.17;;
7607;SDS011;3845;48.120;11.534;2023-09-08T03:43:43;4.30;;;3.90;;
7607;SDS011;3845;48.120;11.534;2023-09-08T03:46:08;4.50;;;4.10;;
7607;SDS011;3845;48.120;11.534;2023-09-08T03:48:33;4.03;;;3.67;;
7607;SDS011;3845;48.120;11.534;2023-09-08T03:50:59;4.10;;;3.70;;
7607;SDS011;3845;48.120;11.534;2023-09-08T03:53:24;5.07;;;4.33;;
7607;SDS011;3845;48.120;11.534;2023-09-08T03:55:49;6.53;;;4.27;;
7607;SDS011;3845;48.120;11.534;2023-09-08T03:58:15;4.57;;;3.93;;
7607;SDS011;3845;48.120;11.534;2023-09-08T04:00:40;4.37;;;3.90;;
7607;SDS011;3845;48.120;11.534;2023-09-08T04:03:06;4.50;;;4.03;;
7607;SDS011;3845;48.120;11.534;2023-09-08T04:05:31;5.87;;;4.60;;
7607;SDS011;3845;48.120;11.534;2023-09-08T04:07:57;5.47;;;4.63;;
7607;SDS011;3845;48.120;11.534;2023-09-08T04:10:22;4.60;;;4.20;;
7607;SDS011;3845;48.120;11.534;2023-09-08T04:12:47;5.87;;;4.60;;
7607;SDS011;3845;48.120;11.534;2023-09-08T04:15:13;5.90;;;4.40;;
7607;SDS011;3845;48.120;11.534;2023-09-08T04:17:38;4.57;;;4.10;;
7607;SDS011;3845;48.120;11.534;2023-09-08T04:20:04;4.60;;;4.10;;
7607;SDS011;3845;48.120;11.534;2023-09-08T04:22:30;5.10;;;4.20;;
7607;SDS011;3845;48.120;11.534;2023-09-08T04:24:56;5.43;;;4.20;;
7607;SDS011;3845;48.120;11.534;2023-09-08T04:27:22;4.67;;;4.27;;
7607;SDS011;3845;48.120;11.534;2023-09-08T04:29:47;4.63;;;3.90;;
7607;SDS011;3845;48.120;11.534;2023-09-08T04:32:13;4.30;;;3.87;;
7607;SDS011;3845;48.120;11.534;2023-09-08T04:34:39;4.97;;;4.10;;
7607;SDS011;3845;48.120;11.534;2023-09-08T04:37:05;4.53;;;4.13;;
7607;SDS011;3845;48.120;11.534;2023-09-08T04:39:30;5.77;;;4.67;;
7607;SDS011;3845;48.120;11.534;2023-09-08T04:41:56;5.10;;;4.60;;
7607;SDS011;3845;48.120;11.534;2023-09-08T04:44:21;4.97;;;4.47;;
7607;SDS011;3845;48.120;11.534;2023-09-08T04:46:46;4.87;;;4.33;;
7607;SDS011;3845;48.120;11.534;2023-09-08T04:49:12;4.80;;;3.93;;
7607;SDS011;3845;48.120;11.534;2023-09-08T04:51:37;5.07;;;4.10;;
7607;SDS011;3845;48.120;11.534;2023-09-08T04:54:02;5.50;;;4.37;;
7607;SDS011;3845;48.120;11.534;2023-09-08T04:56:27;5.70;;;4.77;;
7607;SDS011;3845;48.120;11.534;2023-09-08T04:58:53;5.73;;;4.50;;
7607;SDS011;3845;48.120;11.534;2023-09-08T05:01:20;5.03;;;4.50;;
7607;SDS011;3845;48.120;11.534;2023-09-08T05:03:45;4.50;;;4.10;;
7607;SDS011;3845;48.120;11.534;2023-09-08T05:06:10;5.07;;;4.07;;
7607;SDS011;3845;48.120;11.534;2023-09-08T05:08:36;4.63;;;4.17;;
7607;SDS011;3845;48.120;11.534;2023-09-08T05:11:01;4.33;;;3.93;;
7607;SDS011;3845;48.120;11.534;2023-09-08T05:13:26;4.77;;;4.37;;
7607;SDS011;3845;48.120;11.534;2023-09-08T05:15:52;5.07;;;3.80;;
7607;SDS011;3845;48.120;11.534;2023-09-08T05:18:24;4.67;;;4.27;;
7607;SDS011;3845;48.120;11.534;2023-09-08T05:20:50;5.87;;;4.50;;
7607;SDS011;3845;48.120;11.534;2023-09-08T05:23:15;5.07;;;4.10;;
7607;SDS011;3845;48.120;11.534;2023-09-08T05:25:41;5.23;;;4.40;;
7607;SDS011;3845;48.120;11.534;2023-09-08T05:28:07;4.60;;;4.10;;
7607;SDS011;3845;48.120;11.534;2023-09-08T05:30:34;4.70;;;4.27;;
7607;SDS011;3845;48.120;11.534;2023-09-08T05:33:00;5.37;;;4.13;;
7607;SDS011;3845;48.120;11.534;2023-09-08T05:35:25;4.40;;;4.00;;
7607;SDS011;3845;48.120;11.534;2023-09-08T05:37:50;5.80;;;4.20;;
7607;SDS011;3845;48.120;11.534;2023-09-08T05:40:15;4.60;;;4.20;;
7607;SDS011;3845;48.120;11.534;2023-09-08T05:42:41;4.43;;;4.03;;
7607;SDS011;3845;48.120;11.534;2023-09-08T05:45:06;5.60;;;4.33;;
7607;SDS011;3845;48.120;11.534;2023-09-08T05:47:32;4.70;;;4.27;;
7607;SDS011;3845;48.120;11.534;2023-09-08T05:49:57;4.93;;;4.43;;
7607;SDS011;3845;48.120;11.534;2023-09-08T05:52:22;4.77;;;4.37;;
7607;SDS011;3845;48.120;11.534;2023-09-08T05:54:48;5.00;;;4.50;;
7607;SDS011;3845;48.120;11.534;2023-09-08T05:57:13;4.30;;;3.90;;
7607;SDS011;3845;48.120;11.534;2023-09-08T05:59:38;4.50;;;4.10;;
7607;SDS011;3845;48.120;11.534;2023-09-08T06:02:04;4.70;;;4.30;;
7607;SDS011;3845;48.120;11.534;2023-09-08T06:04:29;6.37;;;4.40;;
7607;SDS011;3845;48.120;11.534;2023-09-08T06:06:57;4.80;;;4.30;;
7607;SDS011;3845;48.120;11.534;2023-09-08T06:09:22;4.60;;;4.20;;
7607;SDS011;3845;48.120;11.534;2023-09-08T06:11:47;4.70;;;4.30;;
7607;SDS011;3845;48.120;11.534;2023-09-08T06:14:13;4.97;;;4.27;;
7607;SDS011;3845;48.120;11.534;2023-09-08T06:16:38;6.60;;;4.47;;
7607;SDS011;3845;48.120;11.534;2023-09-08T06:19:03;5.53;;;4.60;;
7607;SDS011;3845;48.120;11.534;2023-09-08T06:21:29;6.93;;;6.23;;
7607;SDS011;3845;48.120;11.534;2023-09-08T06:23:54;6.40;;;5.80;;
7607;SDS011;3845;48.120;11.534;2023-09-08T06:26:19;7.23;;;5.90;;
7607;SDS011;3845;48.120;11.534;2023-09-08T06:28:44;5.80;;;5.20;;
7607;SDS011;3845;48.120;11.534;2023-09-08T06:31:10;5.80;;;5.30;;
7607;SDS011;3845;48.120;11.534;2023-09-08T06:33:35;6.60;;;5.00;;
7607;SDS011;3845;48.120;11.534;2023-09-08T06:36:00;7.60;;;5.13;;
7607;SDS011;3845;48.120;11.534;2023-09-08T06:38:26;7.47;;;5.70;;
7607;SDS011;3845;48.120;11.534;2023-09-08T06:40:51;7.97;;;6.93;;
7607;SDS011;3845;48.120;11.534;2023-09-08T06:43:18;9.53;;;8.53;;
7607;SDS011;3845;48.120;11.534;2023-09-08T06:45:46;8.17;;;7.23;;
7607;SDS011;3845;48.120;11.534;2023-09-08T06:48:12;7.07;;;6.37;;
7607;SDS011;3845;48.120;11.534;2023-09-08T06:50:38;7.47;;;6.67;;
7607;SDS011;3845;48.120;11.534;2023-09-08T06:53:03;6.17;;;5.57;;
7607;SDS011;3845;48.120;11.534;2023-09-08T06:55:28;5.83;;;5.10;;
7607;SDS011;3845;48.120;11.534;2023-09-08T06:57:54;6.53;;;5.30;;
7607;SDS011;3845;48.120;11.534;2023-09-08T07:00:19;8.37;;;7.53;;
7607;SDS011;3845;48.120;11.534;2023-09-08T07:02:45;10.27;;;7.90;;
7607;SDS011;3845;48.120;11.534;2023-09-08T07:05:10;7.57;;;6.50;;
7607;SDS011;3845;48.120;11.534;2023-09-08T07:07:36;6.40;;;5.80;;
7607;SDS011;3845;48.120;11.534;2023-09-08T07:10:02;6.63;;;6.03;;
7607;SDS011;3845;48.120;11.534;2023-09-08T07:12:28;6.20;;;5.33;;
7607;SDS011;3845;48.120;11.534;2023-09-08T07:14:53;5.83;;;5.23;;
7607;SDS011;3845;48.120;11.534;2023-09-08T07:17:19;6.63;;;5.37;;
7607;SDS011;3845;48.120;11.534;2023-09-08T07:19:44;6.07;;;5.47;;
7607;SDS011;3845;48.120;11.534;2023-09-08T07:22:10;5.23;;;4.73;;
7607;SDS011;3845;48.120;11.534;2023-09-08T07:24:35;5.97;;;5.17;;
7607;SDS011;3845;48.120;11.534;2023-09-08T07:27:00;5.63;;;4.90;;
7607;SDS011;3845;48.120;11.534;2023-09-08T07:29:26;5.40;;;4.83;;
7607;SDS011;3845;48.120;11.534;2023-09-08T07:31:51;5.40;;;4.40;;
7607;SDS011;3845;48.120;11.534;2023-09-08T07:34:17;6.03;;;4.90;;
7607;SDS011;3845;48.120;11.534;2023-09-08T07:36:42;5.13;;;4.60;;
7607;SDS011;3845;48.120;11.534;2023-09-08T07:39:08;5.13;;;4.57;;
7607;SDS011;3845;48.120;11.534;2023-09-08T07:41:33;6.00;;;5.40;;
7607;SDS011;3845;48.120;11.534;2023-09-08T07:43:59;6.53;;;5.20;;
7607;SDS011;3845;48.120;11.534;2023-09-08T07:46:24;5.33;;;4.83;;
7607;SDS011;3845;48.120;11.534;2023-09-08T07:48:50;9.10;;;4.80;;
7607;SDS011;3845;48.120;11.534;2023-09-08T07:51:15;6.60;;;5.20;;
7607;SDS011;3845;48.120;11.534;2023-09-08T07:53:40;5.30;;;4.80;;
7607;SDS011;3845;48.120;11.534;2023-09-08T07:56:06;5.30;;;4.80;;
7607;SDS011;3845;48.120;11.534;2023-09-08T07:58:31;5.50;;;4.97;;
7607;SDS011;3845;48.120;11.534;2023-09-08T08:00:57;8.60;;;7.70;;
7607;SDS011;3845;48.120;11.534;2023-09-08T08:03:22;7.47;;;6.30;;
7607;SDS011;3845;48.120;11.534;2023-09-08T08:05:47;6.37;;;5.47;;
7607;SDS011;3845;48.120;11.534;2023-09-08T08:08:13;7.63;;;5.70;;
7607;SDS011;3845;48.120;11.534;2023-09-08T08:10:40;7.17;;;5.77;;
7607;SDS011;3845;48.120;11.534;2023-09-08T08:13:06;5.43;;;4.90;;
7607;SDS011;3845;48.120;11.534;2023-09-08T08:15:38;5.03;;;4.53;;
7607;SDS011;3845;48.120;11.534;2023-09-08T08:18:05;7.73;;;4.77;;
7607;SDS011;3845;48.120;11.534;2023-09-08T08:20:31;6.73;;;5.60;;
7607;SDS011;3845;48.120;11.534;2023-09-08T08:22:59;6.47;;;5.33;;
7607;SDS011;3845;48.120;11.534;2023-09-08T08:25:28;5.67;;;5.07;;
7607;SDS011;3845;48.120;11.534;2023-09-08T08:27:53;7.77;;;5.30;;
7607;SDS011;3845;48.120;11.534;2023-09-08T08:30:20;7.13;;;5.30;;
7607;SDS011;3845;48.120;11.534;2023-09-08T08:32:45;5.80;;;5.10;;
7607;SDS011;3845;48.120;11.534;2023-09-08T08:35:10;6.20;;;5.20;;
7607;SDS011;3845;48.120;11.534;2023-09-08T08:37:36;6.20;;;5.03;;
7607;SDS011;3845;48.120;11.534;2023-09-08T08:40:01;6.47;;;5.40;;
7607;SDS011;3845;48.120;11.534;2023-09-08T08:42:34;6.77;;;5.80;;
7607;SDS011;3845;48.120;11.534;2023-09-08T08:44:59;8.30;;;7.30;;
7607;SDS011;3845;48.120;11.534;2023-09-08T08:47:25;7.33;;;6.30;;
7607;SDS011;3845;48.120;11.534;2023-09-08T08:49:52;8.50;;;5.93;;
7607;SDS011;3845;48.120;11.534;2023-09-08T08:52:18;6.23;;;5.70;;
7607;SDS011;3845;48.120;11.534;2023-09-08T08:54:44;6.53;;;5.93;;
7607;SDS011;3845;48.120;11.534;2023-09-08T08:57:11;8.40;;;5.70;;
7607;SDS011;3845;48.120;11.534;2023-09-08T08:59:38;5.90;;;5.30;;
7607;SDS011;3845;48.120;11.534;2023-09-08T09:02:03;5.70;;;5.10;;
7607;SDS011;3845;48.120;11.534;2023-09-08T09:04:29;5.97;;;5.37;;
7607;SDS011;3845;48.120;11.534;2023-09-08T09:06:55;7.67;;;6.30;;
7607;SDS011;3845;48.120;11.534;2023-09-08T09:09:20;7.23;;;6.53;;
7607;SDS011;3845;48.120;11.534;2023-09-08T09:11:45;8.47;;;7.00;;
7607;SDS011;3845;48.120;11.534;2023-09-08T09:14:11;7.97;;;5.80;;
7607;SDS011;3845;48.120;11.534;2023-09-08T09:16:40;9.70;;;8.80;;
7607;SDS011;3845;48.120;11.534;2023-09-08T09:19:06;9.33;;;8.43;;
7607;SDS011;3845;48.120;11.534;2023-09-08T09:21:42;11.83;;;10.60;;
7607;SDS011;3845;48.120;11.534;2023-09-08T09:24:13;8.63;;;7.83;;
7607;SDS011;3845;48.120;11.534;2023-09-08T09:26:39;9.27;;;6.57;;
7607;SDS011;3845;48.120;11.534;2023-09-08T09:29:11;8.73;;;6.97;;
7607;SDS011;3845;48.120;11.534;2023-09-08T09:31:52;6.90;;;6.20;;
7607;SDS011;3845;48.120;11.534;2023-09-08T09:34:18;8.67;;;7.07;;
7607;SDS011;3845;48.120;11.534;2023-09-08T09:36:45;7.97;;;6.50;;
7607;SDS011;3845;48.120;11.534;2023-09-08T09:39:11;7.80;;;6.33;;
7607;SDS011;3845;48.120;11.534;2023-09-08T09:41:37;7.90;;;5.97;;
7607;SDS011;3845;48.120;11.534;2023-09-08T09:44:02;7.40;;;5.87;;
7607;SDS011;3845;48.120;11.534;2023-09-08T09:46:29;7.10;;;6.10;;
7607;SDS011;3845;48.120;11.534;2023-09-08T09:48:54;7.20;;;5.93;;
7607;SDS011;3845;48.120;11.534;2023-09-08T09:51:21;6.47;;;5.77;;
7607;SDS011;3845;48.120;11.534;2023-09-08T09:53:49;6.53;;;5.93;;
7607;SDS011;3845;48.120;11.534;2023-09-08T09:56:14;6.80;;;6.10;;
7607;SDS011;3845;48.120;11.534;2023-09-08T09:58:42;6.23;;;5.63;;
7607;SDS011;3845;48.120;11.534;2023-09-08T10:01:07;5.97;;;5.27;;
7607;SDS011;3845;48.120;11.534;2023-09-08T10:03:33;7.70;;;6.30;;
7607;SDS011;3845;48.120;11.534;2023-09-08T10:05:59;6.07;;;5.57;;
7607;SDS011;3845;48.120;11.534;2023-09-08T10:08:24;8.63;;;7.27;;
7607;SDS011;3845;48.120;11.534;2023-09-08T10:10:50;6.97;;;6.27;;
7607;SDS011;3845;48.120;11.534;2023-09-08T10:13:21;7.83;;;5.90;;
7607;SDS011;3845;48.120;11.534;2023-09-08T10:15:49;6.57;;;5.97;;
7607;SDS011;3845;48.120;11.534;2023-09-08T10:18:16;6.03;;;5.43;;
7607;SDS011;3845;48.120;11.534;2023-09-08T10:20:41;7.90;;;6.20;;
7607;SDS011;3845;48.120;11.534;2023-09-08T10:23:12;7.67;;;5.97;;
7607;SDS011;3845;48.120;11.534;2023-09-08T10:25:45;7.80;;;6.97;;
7607;SDS011;3845;48.120;11.534;2023-09-08T10:28:18;7.43;;;6.63;;
7607;SDS011;3845;48.120;11.534;2023-09-08T10:30:44;6.17;;;5.57;;
7607;SDS011;3845;48.120;11.534;2023-09-08T10:33:09;7.50;;;5.63;;
7607;SDS011;3845;48.120;11.534;2023-09-08T10:35:35;9.23;;;5.63;;
7607;SDS011;3845;48.120;11.534;2023-09-08T10:40:48;8.03;;;5.70;;
7607;SDS011;3845;48.120;11.534;2023-09-08T10:43:14;7.70;;;6.90;;
7607;SDS011;3845;48.120;11.534;2023-09-08T10:45:39;6.00;;;5.40;;
7607;SDS011;3845;48.120;11.534;2023-09-08T10:48:06;6.20;;;5.60;;
7607;SDS011;3845;48.120;11.534;2023-09-08T10:50:32;6.73;;;5.03;;
7607;SDS011;3845;48.120;11.534;2023-09-08T10:53:16;6.27;;;5.67;;
7607;SDS011;3845;48.120;11.534;2023-09-08T10:58:16;6.57;;;5.20;;
7607;SDS011;3845;48.120;11.534;2023-09-08T11:00:46;5.40;;;4.90;;
7607;SDS011;3845;48.120;11.534;2023-09-08T11:03:13;8.03;;;6.90;;
7607;SDS011;3845;48.120;11.534;2023-09-08T11:05:39;7.43;;;5.47;;
7607;SDS011;3845;48.120;11.534;2023-09-08T11:08:06;5.90;;;5.40;;
7607;SDS011;3845;48.120;11.534;2023-09-08T11:10:32;6.40;;;5.10;;
7607;SDS011;3845;48.120;11.534;2023-09-08T11:12:57;6.77;;;5.20;;
7607;SDS011;3845;48.120;11.534;2023-09-08T11:15:24;6.10;;;5.50;;
7607;SDS011;3845;48.120;11.534;2023-09-08T11:17:50;5.43;;;4.93;;
7607;SDS011;3845;48.120;11.534;2023-09-08T11:20:25;6.50;;;5.13;;
7607;SDS011;3845;48.120;11.534;2023-09-08T11:22:51;6.27;;;5.10;;
7607;SDS011;3845;48.120;11.534;2023-09-08T11:25:16;6.70;;;4.77;;
7607;SDS011;3845;48.120;11.534;2023-09-08T11:27:42;6.00;;;5.20;;
7607;SDS011;3845;48.120;11.534;2023-09-08T11:30:07;5.60;;;5.10;;
7607;SDS011;3845;48.120;11.534;2023-09-08T11:32:33;5.30;;;4.80;;
7607;SDS011;3845;48.120;11.534;2023-09-08T11:35:06;5.60;;;5.10;;
7607;SDS011;3845;48.120;11.534;2023-09-08T11:37:34;5.93;;;5.00;;
7607;SDS011;3845;48.120;11.534;2023-09-08T11:40:01;5.70;;;4.80;;
7607;SDS011;3845;48.120;11.534;2023-09-08T11:42:28;7.13;;;6.43;;
7607;SDS011;3845;48.120;11.534;2023-09-08T11:44:53;7.47;;;6.20;;
7607;SDS011;3845;48.120;11.534;2023-09-08T11:47:22;6.27;;;5.67;;
7607;SDS011;3845;48.120;11.534;2023-09-08T11:49:47;6.47;;;5.50;;
7607;SDS011;3845;48.120;11.534;2023-09-08T11:52:13;5.70;;;5.20;;
7607;SDS011;3845;48.120;11.534;2023-09-08T11:54:38;5.63;;;5.03;;
7607;SDS011;3845;48.120;11.534;2023-09-08T11:57:04;5.80;;;5.20;;
7607;SDS011;3845;48.120;11.534;2023-09-08T11:59:30;5.53;;;5.03;;
7607;SDS011;3845;48.120;11.534;2023-09-08T12:01:57;6.70;;;5.10;;
7607;SDS011;3845;48.120;11.534;2023-09-08T12:04:23;7.60;;;5.20;;
7607;SDS011;3845;48.120;11.534;2023-09-08T12:06:48;8.73;;;5.77;;
7607;SDS011;3845;48.120;11.534;2023-09-08T12:09:15;7.67;;;5.90;;
7607;SDS011;3845;48.120;11.534;2023-09-08T12:11:41;6.80;;;6.10;;
7607;SDS011;3845;48.120;11.534;2023-09-08T12:14:08;5.70;;;5.20;;
7607;SDS011;3845;48.120;11.534;2023-09-08T12:16:35;5.57;;;5.07;;
7607;SDS011;3845;48.120;11.534;2023-09-08T12:19:00;7.60;;;5.17;;
7607;SDS011;3845;48.120;11.534;2023-09-08T12:21:26;5.70;;;5.20;;
7607;SDS011;3845;48.120;11.534;2023-09-08T12:23:52;5.63;;;5.03;;
7607;SDS011;3845;48.120;11.534;2023-09-08T12:26:18;5.33;;;4.83;;
7607;SDS011;3845;48.120;11.534;2023-09-08T12:28:44;7.33;;;5.93;;
7607;SDS011;3845;48.120;11.534;2023-09-08T12:31:10;6.87;;;6.13;;
7607;SDS011;3845;48.120;11.534;2023-09-08T12:33:38;5.87;;;5.27;;
7607;SDS011;3845;48.120;11.534;2023-09-08T12:36:16;6.17;;;5.10;;
7607;SDS011;3845;48.120;11.534;2023-09-08T12:38:52;7.00;;;5.67;;
7607;SDS011;3845;48.120;11.534;2023-09-08T12:41:18;6.00;;;5.50;;
7607;SDS011;3845;48.120;11.534;2023-09-08T12:43:44;5.30;;;4.80;;
7607;SDS011;3845;48.120;11.534;2023-09-08T12:46:10;6.10;;;5.60;;
7607;SDS011;3845;48.120;11.534;2023-09-08T12:48:35;6.20;;;5.63;;
7607;SDS011;3845;48.120;11.534;2023-09-08T12:51:00;6.40;;;5.80;;
7607;SDS011;3845;48.120;11.534;2023-09-08T12:53:26;6.30;;;5.80;;
7607;SDS011;3845;48.120;11.534;2023-09-08T12:55:51;6.53;;;5.43;;
7607;SDS011;3845;48.120;11.534;2023-09-08T12:58:17;6.23;;;5.63;;
7607;SDS011;3845;48.120;11.534;2023-09-08T13:00:42;5.90;;;5.33;;
7607;SDS011;3845;48.120;11.534;2023-09-08T13:03:08;7.03;;;5.53;;
7607;SDS011;3845;48.120;11.534;2023-09-08T13:05:34;5.60;;;5.10;;
7607;SDS011;3845;48.120;11.534;2023-09-08T13:07:59;5.90;;;4.80;;
7607;SDS011;3845;48.120;11.534;2023-09-08T13:10:24;4.87;;;4.47;;
7607;SDS011;3845;48.120;11.534;2023-09-08T13:12:50;6.27;;;4.93;;
7607;SDS011;3845;48.120;11.534;2023-09-08T13:15:15;5.87;;;5.20;;
7607;SDS011;3845;48.120;11.534;2023-09-08T13:17:41;5.00;;;4.50;;
7607;SDS011;3845;48.120;11.534;2023-09-08T13:20:06;5.07;;;4.57;;
7607;SDS011;3845;48.120;11.534;2023-09-08T13:22:32;5.40;;;5.00;;
7607;SDS011;3845;48.120;11.534;2023-09-08T13:24:58;5.70;;;5.20;;
7607;SDS011;3845;48.120;11.534;2023-09-08T13:27:23;6.53;;;5.10;;
7607;SDS011;3845;48.120;11.534;2023-09-08T13:29:48;8.20;;;5.43;;
7607;SDS011;3845;48.120;11.534;2023-09-08T13:32:14;6.23;;;5.57;;
7607;SDS011;3845;48.120;11.534;2023-09-08T13:34:39;5.57;;;5.07;;
7607;SDS011;3845;48.120;11.534;2023-09-08T13:37:04;5.63;;;5.13;;
7607;SDS011;3845;48.120;11.534;2023-09-08T13:39:30;5.17;;;4.70;;
7607;SDS011;3845;48.120;11.534;2023-09-08T13:41:55;6.00;;;5.30;;
7607;SDS011;3845;48.120;11.534;2023-09-08T13:44:24;6.00;;;5.10;;
7607;SDS011;3845;48.120;11.534;2023-09-08T13:46:50;5.40;;;4.73;;
7607;SDS011;3845;48.120;11.534;2023-09-08T13:49:15;5.83;;;5.20;;
7607;SDS011;3845;48.120;11.534;2023-09-08T13:51:41;5.23;;;4.73;;
7607;SDS011;3845;48.120;11.534;2023-09-08T13:54:07;5.97;;;5.20;;
7607;SDS011;3845;48.120;11.534;2023-09-08T13:56:33;6.27;;;5.67;;
7607;SDS011;3845;48.120;11.534;2023-09-08T13:58:59;6.57;;;5.60;;
7607;SDS011;3845;48.120;11.534;2023-09-08T14:01:24;5.67;;;5.17;;
7607;SDS011;3845;48.120;11.534;2023-09-08T14:03:52;6.30;;;5.17;;
7607;SDS011;3845;48.120;11.534;2023-09-08T14:06:18;5.37;;;4.87;;
7607;SDS011;3845;48.120;11.534;2023-09-08T14:08:43;5.73;;;5.17;;
7607;SDS011;3845;48.120;11.534;2023-09-08T14:11:09;5.90;;;5.10;;
7607;SDS011;3845;48.120;11.534;2023-09-08T14:13:34;5.80;;;5.20;;
7607;SDS011;3845;48.120;11.534;2023-09-08T14:16:00;5.47;;;4.97;;
7607;SDS011;3845;48.120;11.534;2023-09-08T14:18:25;5.00;;;4.40;;
7607;SDS011;3845;48.120;11.534;2023-09-08T14:20:50;5.50;;;5.00;;
7607;SDS011;3845;48.120;11.534;2023-09-08T14:23:16;6.63;;;5.93;;
7607;SDS011;3845;48.120;11.534;2023-09-08T14:25:41;6.30;;;5.30;;
7607;SDS011;3845;48.120;11.534;2023-09-08T14:28:06;7.20;;;6.50;;
7607;SDS011;3845;48.120;11.534;2023-09-08T14:30:31;7.50;;;6.73;;
7607;SDS011;3845;48.120;11.534;2023-09-08T14:32:58;6.30;;;5.70;;
7607;SDS011;3845;48.120;11.534;2023-09-08T14:35:23;6.97;;;5.30;;
7607;SDS011;3845;48.120;11.534;2023-09-08T14:37:48;5.43;;;4.90;;
7607;SDS011;3845;48.120;11.534;2023-09-08T14:40:14;5.30;;;4.80;;
7607;SDS011;3845;48.120;11.534;2023-09-08T14:42:40;4.90;;;4.50;;
7607;SDS011;3845;48.120;11.534;2023-09-08T14:45:05;4.77;;;4.37;;
7607;SDS011;3845;48.120;11.534;2023-09-08T14:47:31;5.30;;;4.60;;
7607;SDS011;3845;48.120;11.534;2023-09-08T14:49:57;5.57;;;4.90;;
7607;SDS011;3845;48.120;11.534;2023-09-08T14:52:22;5.10;;;4.60;;
7607;SDS011;3845;48.120;11.534;2023-09-08T14:54:48;4.77;;;4.37;;
7607;SDS011;3845;48.120;11.534;2023-09-08T14:57:14;5.97;;;4.90;;
7607;SDS011;3845;48.120;11.534;2023-09-08T14:59:39;5.37;;;4.87;;